Latest Weather Observations for Horn Island

IDQ60801

Issued at 9:02 pm EST Monday 27 February 2017 (issued every 30 minutes, with the page automatically refreshed every 10 minutes)

About weather observations | Map of weather stations | Latest weather observations for QLD | Other Formats
Station Details ID: 027058 Name: HORN ISLAND Lat: -10.58 Lon: 142.29 Height: 4.0 m
Data from the previous 72 hours. | See also: Recent months at Horn Island
Date/Time
EST
Temp
°C
App
Temp
°C
Dew
Point
°C
Rel
Hum
%
Delta-T
°C
Wind Press
QNH
hPa
Press
MSL
hPa
Rain since
9am
mm
Dir  Spd
km/h
Gust
km/h
Spd
kts
Gust
kts
27/09:00pm 26.6 30.2 23.7 84 2.0 E 11 15 6 8 1008.8 1008.8 3.2
27/08:30pm 26.5 30.6 24.0 86 1.7 E 9 13 5 7 1008.5 - 3.2
27/08:00pm 26.5 30.6 24.0 86 1.7 E 9 11 5 6 1008.0 - 3.2
27/07:30pm 26.4 30.9 23.9 86 1.7 E 7 9 4 5 1007.8 - 3.2
27/07:00pm 26.8 31.3 23.9 84 2.0 E 7 11 4 6 1007.7 - 3.2
27/06:30pm 26.9 30.8 23.6 82 2.3 ENE 9 11 5 6 1007.3 - 3.2
27/06:00pm 27.3 30.9 23.7 81 2.5 E 11 13 6 7 1006.9 1006.9 3.2
27/05:30pm 27.5 31.5 23.7 80 2.6 E 9 11 5 6 1006.6 - 3.2
27/05:00pm 27.6 31.4 23.4 78 2.9 ENE 9 13 5 7 1006.4 - 3.2
27/04:30pm 27.8 31.6 24.0 80 2.6 E 11 13 6 7 1005.9 - 3.2
27/04:00pm 27.7 32.2 23.9 80 2.6 NNE 7 11 4 6 1005.7 - 3.2
27/03:30pm 27.4 31.5 23.2 78 2.9 N 7 11 4 6 1005.8 - 3.2
27/03:15pm 27.6 32.0 23.8 80 2.6 NNW 7 11 4 6 1005.8 - 3.2
27/03:00pm 27.5 31.3 23.5 79 2.7 NW 9 13 5 7 1005.9 1005.9 3.2
27/02:59pm 27.5 31.3 23.5 79 2.7 NW 9 13 5 7 1005.9 - 3.2
27/02:30pm 27.3 31.5 23.5 80 2.6 N 7 9 4 5 1006.3 - 3.2
27/02:22pm 27.5 32.0 23.9 81 2.5 N 7 9 4 5 1006.4 - 3.2
27/02:00pm 27.4 31.4 23.8 81 2.5 N 9 13 5 7 1006.8 - 3.2
27/01:30pm 27.1 31.0 24.2 84 2.0 NE 11 15 6 8 1007.4 - 3.2
27/01:00pm 26.7 30.1 24.0 85 1.9 ENE 13 17 7 9 1008.0 - 3.2
27/12:30pm 26.1 29.4 24.5 91 1.1 NE 15 20 8 11 1008.6 - 3.2
27/12:00pm 25.3 27.6 24.1 93 0.8 ENE 19 24 10 13 1009.1 1009.1 3.2
27/11:30am 25.3 28.7 24.6 96 0.5 E 15 20 8 11 1010.0 - 3.0
27/11:28am 25.2 28.5 24.5 96 0.5 E 15 20 8 11 1010.0 - 3.0
27/11:17am 25.2 28.9 24.5 96 0.5 ESE 13 19 7 10 1010.2 - 3.0
27/11:00am 24.5 29.1 23.1 92 0.9 S 4 9 2 5 1010.2 - 2.2
27/10:56am 24.5 28.7 23.1 92 0.9 SW 6 13 3 7 1010.2 - 1.8
27/10:30am 25.1 28.8 23.9 93 0.8 N 11 17 6 9 1010.6 - 1.2
27/10:18am 25.2 28.3 24.2 94 0.7 NNE 15 20 8 11 1010.5 - 1.2
27/10:07am 25.2 28.7 24.2 94 0.7 N 13 19 7 10 1010.5 - 1.0
27/10:01am 25.2 28.2 24.0 93 0.8 NNE 15 20 8 11 1010.6 - 0.6
27/10:00am 25.2 28.2 24.0 93 0.8 NNE 15 20 8 11 1010.6 - 0.6
27/09:38am 25.5 27.1 23.9 91 1.1 NNE 22 33 12 18 1010.7 - 0.0
27/09:35am 25.4 27.3 23.5 89 1.3 NNE 19 32 10 17 1010.7 - 0.0
27/09:30am 25.4 27.5 23.1 87 1.6 NNE 17 28 9 15 1010.5 - 0.0
27/09:21am 25.5 26.9 22.6 84 2.0 NE 19 26 10 14 1010.4 - 0.0
27/09:00am 26.9 31.7 25.1 90 1.3 S 9 13 5 7 1010.3 1010.3 5.6
27/08:30am 26.7 31.4 24.9 90 1.3 SSE 9 13 5 7 1009.8 - 5.6
27/08:00am 26.7 30.5 24.7 89 1.4 SSE 13 17 7 9 1009.6 - 5.6
27/07:30am 26.8 31.0 24.8 89 1.4 S 11 17 6 9 1008.9 - 5.6
27/07:00am 26.5 30.4 24.3 88 1.5 SSE 11 15 6 8 1008.8 - 5.6
27/06:30am 26.4 29.1 24.2 88 1.5 SSE 17 22 9 12 1008.1 - 5.6
27/06:00am 26.2 30.1 24.2 89 1.4 SSE 11 15 6 8 1008.1 1008.1 5.6
27/05:30am 26.1 29.5 24.1 89 1.4 SSE 13 17 7 9 1007.6 - 5.6
27/05:00am 26.2 30.2 25.0 93 0.8 SSE 13 19 7 10 1007.6 - 5.6
27/04:30am 25.9 30.8 24.7 93 0.8 SE 7 9 4 5 1007.5 - 5.6
27/04:00am 26.1 30.9 24.5 91 1.1 SE 7 13 4 7 1007.2 - 5.6
27/03:30am 26.6 31.6 24.8 90 1.3 SE 7 11 4 6 1007.1 - 5.6
27/03:00am 26.6 31.6 24.8 90 1.3 SE 7 9 4 5 1007.2 1007.2 5.6
27/02:30am 26.4 31.4 24.8 91 1.1 SE 7 9 4 5 1007.5 - 5.6
27/02:00am 26.6 31.7 24.6 89 1.4 SE 6 7 3 4 1007.9 - 5.6
27/01:30am 26.5 31.4 24.3 88 1.5 SE 6 7 3 4 1008.2 - 5.6
27/01:00am 26.5 31.3 24.5 89 1.4 SE 7 9 4 5 1008.4 - 5.6
27/12:30am 26.6 31.7 24.6 89 1.4 SE 6 6 3 3 1008.9 - 5.6
27/12:00am 26.7 31.8 24.7 89 1.4 SE 6 9 3 5 1009.1 1009.1 5.6
 
Date/Time
EST
Temp
°C
App
Temp
°C
Dew
Point
°C
Rel
Hum
%
Delta-T
°C
Wind Press
QNH
hPa
Press
MSL
hPa
Rain since
9am
mm
Dir  Spd
km/h
Gust
km/h
Spd
kts
Gust
kts
26/11:30pm 26.6 31.4 24.4 88 1.5 SE 7 9 4 5 1009.3 - 5.6
26/11:00pm 26.4 31.0 24.2 88 1.5 SE 7 9 4 5 1009.5 - 5.6
26/10:30pm 26.4 31.5 24.6 90 1.2 SE 6 7 3 4 1009.5 - 5.6
26/10:00pm 26.2 31.1 24.6 91 1.1 SE 7 9 4 5 1009.0 - 5.6
26/09:30pm 26.2 31.3 24.6 91 1.1 SE 6 7 3 4 1008.7 - 5.6
26/09:00pm 26.2 31.1 24.6 91 1.1 SE 7 11 4 6 1008.4 1008.4 5.6
26/08:30pm 26.3 32.7 24.9 92 1.0 CALM 0 0 0 0 1008.3 - 5.6
26/08:00pm 26.3 31.4 24.7 91 1.1 SE 6 7 3 4 1007.8 - 5.6
26/07:30pm 26.6 32.4 24.6 89 1.4 NNE 2 6 1 3 1007.4 - 5.6
26/07:00pm 26.7 31.4 24.0 85 1.9 E 6 7 3 4 1006.6 - 5.6
26/06:30pm 27.0 31.0 23.7 82 2.3 ESE 9 11 5 6 1006.2 - 5.6
26/06:00pm 27.4 31.7 23.6 80 2.6 ESE 7 9 4 5 1005.9 1005.9 5.6
26/05:30pm 27.4 31.0 23.0 77 3.0 E 9 11 5 6 1005.7 - 5.6
26/05:00pm 27.9 31.6 23.3 76 3.1 ENE 9 13 5 7 1005.8 - 5.6
26/04:30pm 27.9 32.2 23.3 76 3.1 NE 6 9 3 5 1006.0 - 5.6
26/04:00pm 27.9 32.1 23.1 75 3.3 N 6 7 3 4 1006.3 - 5.6
26/03:30pm 27.9 31.9 23.1 75 3.3 N 7 11 4 6 1006.4 - 5.6
26/03:00pm 28.1 32.4 23.7 77 3.0 NNW 7 11 4 6 1006.5 1006.5 5.6
26/02:30pm 27.4 31.6 23.4 79 2.7 WNW 7 11 4 6 1006.6 - 5.6
26/02:00pm 26.9 31.1 23.2 80 2.5 N 6 7 3 4 1006.9 - 5.6
26/01:30pm 26.4 30.4 23.1 82 2.2 N 7 11 4 6 1007.4 - 5.6
26/01:00pm 25.9 30.0 23.9 89 1.4 N 9 11 5 6 1007.8 - 5.6
26/12:30pm 26.1 30.5 25.1 94 0.7 N 11 17 6 9 1008.3 - 5.4
26/12:00pm 25.9 30.5 24.7 93 0.8 NNE 9 13 5 7 1008.8 1008.8 5.0
26/11:30am 25.6 31.7 25.1 97 0.3 S 2 9 1 5 1009.2 - 4.0
26/11:00am 25.3 30.4 25.0 98 0.2 SSW 7 9 4 5 1009.8 - 3.6
26/10:52am 25.4 30.7 25.2 99 0.1 S 7 9 4 5 1009.9 - 3.6
26/10:30am 25.1 30.4 24.9 99 0.1 WSW 6 7 3 4 1010.2 - 3.6
26/10:22am 25.1 30.2 24.9 99 0.1 W 7 9 4 5 1010.2 - 3.6
26/10:00am 24.9 31.2 24.7 99 0.1 CALM 0 0 0 0 1010.0 - 3.4
26/09:57am 25.0 31.3 24.8 99 0.1 CALM 0 0 0 0 1009.9 - 3.4
26/09:48am 25.0 30.6 24.8 99 0.1 W 4 7 2 4 1009.9 - 3.4
26/09:30am 24.8 29.7 24.6 99 0.1 WSW 7 9 4 5 1009.9 - 3.0
26/09:00am 24.6 29.3 24.3 98 0.2 SE 7 9 4 5 1009.9 1009.9 49.0
26/08:55am 24.6 29.3 24.3 98 0.2 SE 7 9 4 5 1010.0 - 48.0
26/08:44am 24.9 29.8 24.6 98 0.2 SE 7 9 4 5 1010.0 - 45.6
26/08:30am 25.0 29.9 24.7 98 0.2 SE 7 9 4 5 1009.7 - 43.2
26/08:00am 24.9 29.4 24.6 98 0.2 NE 9 13 5 7 1009.2 - 38.8
26/07:30am 25.0 30.0 24.8 99 0.1 SSE 7 19 4 10 1008.7 - 35.4
26/07:00am 24.8 29.1 24.3 97 0.3 S 9 11 5 6 1008.0 - 31.0
26/06:59am 24.8 29.1 24.3 97 0.3 SSE 9 11 5 6 1008.0 - 31.0
26/06:49am 25.1 30.0 24.4 96 0.5 SE 6 7 3 4 1008.0 - 29.8
26/06:30am 25.1 29.7 24.1 94 0.7 E 7 9 4 5 1007.8 - 26.6
26/06:11am 25.7 30.7 24.8 95 0.6 E 7 11 4 6 1007.6 - 24.0
26/06:00am 25.6 30.2 24.7 95 0.6 ENE 9 13 5 7 1007.4 1007.4 23.0
26/05:31am 25.4 29.6 24.7 96 0.5 NE 11 15 6 8 1007.3 - 21.6
26/05:30am 25.3 29.4 24.6 96 0.5 NE 11 15 6 8 1007.2 - 21.6
26/05:00am 25.2 30.1 24.7 97 0.3 N 7 7 4 4 1007.2 - 21.4
26/04:41am 25.2 30.7 24.7 97 0.3 SE 4 7 2 4 1006.9 - 21.2
26/04:32am 25.2 30.3 24.7 97 0.3 ESE 6 7 3 4 1007.0 - 21.2
26/04:30am 25.2 30.1 24.7 97 0.3 E 7 9 4 5 1007.0 - 21.0
26/04:14am 25.2 30.1 24.7 97 0.3 N 7 11 4 6 1007.1 - 19.0
26/04:00am 25.2 29.4 24.7 97 0.3 N 11 15 6 8 1006.8 - 18.2
26/03:30am 24.9 27.7 23.7 93 0.8 NNE 15 20 8 11 1007.0 - 8.6
26/03:27am 24.8 27.2 23.6 93 0.8 NNE 17 22 9 12 1006.9 - 8.2
26/03:11am 26.1 28.7 24.9 93 0.8 N 20 32 11 17 1006.8 - 1.6
26/03:08am 26.1 28.2 24.7 92 1.0 N 22 32 12 17 1006.8 - 0.2
26/03:00am 26.8 33.1 25.4 92 1.0 N 2 9 1 5 1006.9 1006.9 0.0
26/02:30am 26.8 33.0 25.2 91 1.1 SE 2 7 1 4 1006.9 - 0.0
26/02:00am 26.8 32.9 25.6 93 0.8 S 4 9 2 5 1007.0 - 0.0
26/01:30am 26.9 32.5 25.5 92 1.0 S 6 7 3 4 1007.5 - 0.0
26/01:00am 27.2 33.5 25.4 90 1.3 SSE 2 6 1 3 1007.8 - 0.0
26/12:30am 27.2 32.6 25.2 89 1.4 SE 6 6 3 3 1008.3 - 0.0
26/12:00am 27.4 33.0 25.4 89 1.4 SE 6 7 3 4 1008.6 1008.6 0.0
 
Date/Time
EST
Temp
°C
App
Temp
°C
Dew
Point
°C
Rel
Hum
%
Delta-T
°C
Wind Press
QNH
hPa
Press
MSL
hPa
Rain since
9am
mm
Dir  Spd
km/h
Gust
km/h
Spd
kts
Gust
kts
25/11:30pm 27.5 32.8 25.3 88 1.5 SE 7 9 4 5 1009.2 - 0.0
25/11:00pm 27.4 33.0 25.4 89 1.4 ESE 6 9 3 5 1009.1 - 0.0
25/10:30pm 27.6 33.0 25.2 87 1.7 ESE 6 7 3 4 1009.1 - 0.0
25/10:00pm 27.7 32.9 25.1 86 1.8 SE 7 9 4 5 1009.1 - 0.0
25/09:30pm 27.7 33.5 25.1 86 1.8 E 4 7 2 4 1009.0 - 0.0
25/09:00pm 27.9 33.2 24.9 84 2.1 SE 6 7 3 4 1008.8 1008.8 0.0
25/08:30pm 28.0 33.3 25.0 84 2.1 ESE 6 6 3 3 1008.5 - 0.0
25/08:00pm 28.0 33.4 25.2 85 2.0 SE 6 7 3 4 1008.1 - 0.0
25/07:30pm 28.3 33.7 25.1 83 2.2 S 6 7 3 4 1007.9 - 0.0
25/07:00pm 28.7 34.3 24.9 80 2.7 NE 4 6 2 3 1007.7 - 0.0
25/06:30pm 28.9 34.0 24.7 78 2.9 NE 6 6 3 3 1007.3 - 0.0
25/06:00pm 29.0 33.7 24.3 76 3.3 NNE 7 9 4 5 1006.8 1006.8 0.0
25/05:30pm 29.2 33.7 23.9 73 3.7 N 7 11 4 6 1006.7 - 0.0
25/05:00pm 29.3 33.3 23.7 72 3.9 ENE 9 13 5 7 1006.2 - 0.0
25/04:30pm 29.9 33.3 23.3 67 4.5 NE 11 17 6 9 1006.2 - 0.0
25/04:00pm 30.1 33.2 23.5 67 4.6 ENE 13 20 7 11 1006.4 - 0.0
25/03:30pm 30.6 33.6 24.0 68 4.6 ENE 15 19 8 10 1006.8 - 0.0
25/03:00pm 30.4 32.7 24.1 69 4.4 E 19 22 10 12 1007.1 1007.1 0.0
25/02:30pm 29.7 31.5 23.2 68 4.5 E 19 26 10 14 1007.3 - 0.0
25/02:00pm 30.4 32.6 24.8 72 3.9 E 22 35 12 19 1007.7 - 0.0
25/01:30pm 30.8 33.8 24.7 70 4.3 ENE 17 24 9 13 1008.1 - 0.0
25/01:00pm 30.8 33.3 24.4 68 4.5 E 19 24 10 13 1008.5 - 0.0
25/12:30pm 30.7 33.3 23.9 67 4.7 ENE 17 22 9 12 1009.1 - 0.0
25/12:00pm 30.9 33.4 24.5 68 4.5 ENE 19 24 10 13 1009.6 1009.6 0.0
25/11:30am 30.8 33.0 24.0 67 4.7 E 19 22 10 12 1009.9 - 0.0
25/11:00am 30.7 33.6 25.1 72 3.9 E 19 28 10 15 1010.1 - 0.0
25/10:30am 30.8 33.8 24.0 67 4.7 ESE 15 20 8 11 1010.1 - 0.0
25/10:00am 30.7 33.7 24.6 70 4.3 ESE 17 22 9 12 1010.1 - 0.0
25/09:30am 30.3 32.9 24.0 69 4.4 E 17 24 9 13 1010.3 - 0.0
25/09:00am 29.7 32.5 24.3 73 3.8 SE 17 20 9 11 1009.9 1009.9 0.0
25/08:30am 29.0 33.4 25.0 79 2.8 SSE 11 13 6 7 1009.8 - 0.0
25/08:00am 27.8 32.3 25.2 86 1.8 S 11 17 6 9 1009.9 - 0.0
25/07:30am 27.3 31.9 25.9 92 1.0 S 13 15 7 8 1009.7 - 0.0
25/07:00am 26.7 32.1 26.0 96 0.5 S 9 11 5 6 1009.4 - 0.0
25/06:30am 26.4 31.7 25.9 97 0.4 S 9 13 5 7 1008.9 - 0.0
25/06:00am 26.4 31.9 26.1 98 0.2 S 9 13 5 7 1008.5 1008.5 0.0
25/05:30am 26.5 31.7 26.3 99 0.1 S 11 15 6 8 1008.2 - 0.0
25/05:00am 26.2 31.6 26.0 99 0.1 S 9 11 5 6 1007.9 - 0.0
25/04:30am 26.0 31.6 25.7 98 0.2 SSE 7 9 4 5 1007.5 - 0.0
25/04:00am 25.8 32.4 25.3 97 0.3 CALM 0 0 0 0 1008.1 - 0.0
25/03:30am 25.9 31.3 25.4 97 0.3 SSW 7 9 4 5 1007.9 - 0.0
25/03:00am 26.0 31.5 25.3 96 0.5 SW 6 7 3 4 1008.5 1008.5 0.0
25/02:30am 26.1 31.5 25.4 96 0.5 SSW 7 9 4 5 1008.6 - 0.0
25/02:00am 26.1 31.5 25.4 96 0.5 SSW 7 9 4 5 1008.6 - 0.0
25/01:30am 26.3 31.8 25.6 96 0.5 SSW 7 9 4 5 1008.7 - 0.0
25/01:00am 26.4 31.5 25.5 95 0.6 SSW 9 11 5 6 1009.1 - 0.0
25/12:30am 26.6 32.4 25.7 95 0.6 WSW 6 7 3 4 1009.3 - 0.0
25/12:00am 26.7 33.2 25.7 94 0.7 WSW 2 7 1 4 1009.7 1009.7 0.0
 
Date/Time
EST
Temp
°C
App
Temp
°C
Dew
Point
°C
Rel
Hum
%
Delta-T
°C
Wind Press
QNH
hPa
Press
MSL
hPa
Rain since
9am
mm
Dir  Spd
km/h
Gust
km/h
Spd
kts
Gust
kts
24/11:30pm 26.6 32.3 25.6 94 0.7 SW 6 7 3 4 1010.1 - 0.0
24/11:00pm 26.7 32.3 25.5 93 0.8 S 6 7 3 4 1010.3 - 0.0
24/10:30pm 26.8 33.1 25.4 92 1.0 SW 2 6 1 3 1010.4 - 0.0
24/10:00pm 27.1 32.2 25.5 91 1.1 SSW 9 9 5 5 1009.9 - 0.0
24/09:51pm 27.2 32.2 25.4 90 1.3 SSW 9 11 5 6 1010.0 - 0.0
24/09:35pm 27.3 32.6 25.3 89 1.4 S 7 11 4 6 1009.9 - 0.0
24/09:30pm 27.3 32.2 25.3 89 1.4 S 9 11 5 6 1009.9 - 0.0

Other Formats:

Comma delimited format used in spreadsheet applications
http://www.bom.gov.au/fwo/IDQ60801/IDQ60801.94174.axf

JavaScript Object Notation format (JSON) in row-major order
http://www.bom.gov.au/fwo/IDQ60801/IDQ60801.94174.json